sensor_id;sensor_type;location;lat;lon;timestamp;P1;durP1;ratioP1;P2;durP2;ratioP2
80870;SDS011;70296;49.226;-122.884;2024-02-21T00:00:24;3.83;;;1.30;;
80870;SDS011;70296;49.226;-122.884;2024-02-21T00:02:50;2.53;;;1.30;;
80870;SDS011;70296;49.226;-122.884;2024-02-21T00:05:16;3.10;;;1.58;;
80870;SDS011;70296;49.226;-122.884;2024-02-21T00:07:42;2.10;;;1.40;;
80870;SDS011;70296;49.226;-122.884;2024-02-21T00:10:09;1.85;;;1.25;;
80870;SDS011;70296;49.226;-122.884;2024-02-21T00:12:35;2.05;;;1.42;;
80870;SDS011;70296;49.226;-122.884;2024-02-21T00:15:01;2.30;;;1.20;;
80870;SDS011;70296;49.226;-122.884;2024-02-21T00:17:28;2.15;;;1.30;;
80870;SDS011;70296;49.226;-122.884;2024-02-21T00:19:54;2.60;;;1.40;;
80870;SDS011;70296;49.226;-122.884;2024-02-21T00:22:22;1.80;;;1.30;;
80870;SDS011;70296;49.226;-122.884;2024-02-21T00:24:48;2.10;;;1.45;;
80870;SDS011;70296;49.226;-122.884;2024-02-21T00:27:14;2.42;;;1.30;;
80870;SDS011;70296;49.226;-122.884;2024-02-21T00:29:40;3.75;;;1.27;;
80870;SDS011;70296;49.226;-122.884;2024-02-21T00:32:07;1.60;;;1.17;;
80870;SDS011;70296;49.226;-122.884;2024-02-21T00:34:33;2.88;;;1.60;;
80870;SDS011;70296;49.226;-122.884;2024-02-21T00:37:02;3.67;;;1.80;;
80870;SDS011;70296;49.226;-122.884;2024-02-21T00:39:30;1.85;;;1.25;;
80870;SDS011;70296;49.226;-122.884;2024-02-21T00:41:56;2.92;;;1.48;;
80870;SDS011;70296;49.226;-122.884;2024-02-21T00:44:22;1.85;;;1.23;;
80870;SDS011;70296;49.226;-122.884;2024-02-21T00:46:48;1.95;;;1.20;;
80870;SDS011;70296;49.226;-122.884;2024-02-21T00:49:14;2.22;;;1.20;;
80870;SDS011;70296;49.226;-122.884;2024-02-21T00:51:41;1.25;;;1.08;;
80870;SDS011;70296;49.226;-122.884;2024-02-21T00:54:07;2.08;;;1.10;;
80870;SDS011;70296;49.226;-122.884;2024-02-21T00:56:33;2.92;;;1.20;;
80870;SDS011;70296;49.226;-122.884;2024-02-21T00:59:00;2.05;;;1.10;;
80870;SDS011;70296;49.226;-122.884;2024-02-21T01:01:26;1.50;;;1.10;;
80870;SDS011;70296;49.226;-122.884;2024-02-21T01:03:52;1.40;;;0.95;;
80870;SDS011;70296;49.226;-122.884;2024-02-21T01:06:19;1.67;;;0.85;;
80870;SDS011;70296;49.226;-122.884;2024-02-21T01:08:48;1.63;;;1.00;;
80870;SDS011;70296;49.226;-122.884;2024-02-21T01:11:15;1.40;;;0.93;;
80870;SDS011;70296;49.226;-122.884;2024-02-21T01:13:42;2.03;;;1.00;;
80870;SDS011;70296;49.226;-122.884;2024-02-21T01:16:08;2.08;;;1.20;;
80870;SDS011;70296;49.226;-122.884;2024-02-21T01:18:37;2.25;;;1.20;;
80870;SDS011;70296;49.226;-122.884;2024-02-21T01:21:04;1.80;;;1.20;;
80870;SDS011;70296;49.226;-122.884;2024-02-21T01:23:33;1.55;;;0.98;;
80870;SDS011;70296;49.226;-122.884;2024-02-21T01:26:01;1.08;;;0.93;;
80870;SDS011;70296;49.226;-122.884;2024-02-21T01:28:28;3.03;;;1.35;;
80870;SDS011;70296;49.226;-122.884;2024-02-21T01:30:59;3.10;;;1.27;;
80870;SDS011;70296;49.226;-122.884;2024-02-21T01:33:25;2.65;;;1.38;;
80870;SDS011;70296;49.226;-122.884;2024-02-21T01:35:57;5.80;;;1.35;;
80870;SDS011;70296;49.226;-122.884;2024-02-21T01:38:25;1.58;;;1.15;;
80870;SDS011;70296;49.226;-122.884;2024-02-21T01:40:51;2.05;;;1.38;;
80870;SDS011;70296;49.226;-122.884;2024-02-21T01:43:19;1.88;;;1.10;;
80870;SDS011;70296;49.226;-122.884;2024-02-21T01:45:49;1.67;;;1.17;;
80870;SDS011;70296;49.226;-122.884;2024-02-21T01:48:19;1.63;;;0.90;;
80870;SDS011;70296;49.226;-122.884;2024-02-21T01:50:47;3.00;;;1.30;;
80870;SDS011;70296;49.226;-122.884;2024-02-21T01:53:16;3.28;;;1.38;;
80870;SDS011;70296;49.226;-122.884;2024-02-21T01:55:47;2.67;;;1.10;;
80870;SDS011;70296;49.226;-122.884;2024-02-21T01:58:14;2.13;;;1.20;;
80870;SDS011;70296;49.226;-122.884;2024-02-21T02:00:44;1.85;;;1.15;;
80870;SDS011;70296;49.226;-122.884;2024-02-21T02:03:12;2.22;;;1.30;;
80870;SDS011;70296;49.226;-122.884;2024-02-21T02:05:45;2.63;;;1.50;;
80870;SDS011;70296;49.226;-122.884;2024-02-21T02:08:15;1.98;;;1.30;;
80870;SDS011;70296;49.226;-122.884;2024-02-21T02:10:42;1.92;;;1.15;;
80870;SDS011;70296;49.226;-122.884;2024-02-21T02:13:09;2.25;;;1.10;;
80870;SDS011;70296;49.226;-122.884;2024-02-21T02:15:42;1.48;;;0.82;;
80870;SDS011;70296;49.226;-122.884;2024-02-21T02:18:14;1.58;;;0.90;;
80870;SDS011;70296;49.226;-122.884;2024-02-21T02:20:45;2.10;;;1.13;;
80870;SDS011;70296;49.226;-122.884;2024-02-21T02:25:57;1.25;;;1.00;;
80870;SDS011;70296;49.226;-122.884;2024-02-21T02:28:27;1.40;;;0.90;;
80870;SDS011;70296;49.226;-122.884;2024-02-21T02:30:55;1.48;;;0.95;;
80870;SDS011;70296;49.226;-122.884;2024-02-21T02:33:21;4.30;;;1.10;;
80870;SDS011;70296;49.226;-122.884;2024-02-21T02:35:47;2.08;;;1.30;;
80870;SDS011;70296;49.226;-122.884;2024-02-21T02:38:14;2.53;;;1.30;;
80870;SDS011;70296;49.226;-122.884;2024-02-21T02:40:40;2.20;;;1.25;;
80870;SDS011;70296;49.226;-122.884;2024-02-21T02:43:07;2.80;;;1.30;;
80870;SDS011;70296;49.226;-122.884;2024-02-21T02:45:37;2.47;;;1.40;;
80870;SDS011;70296;49.226;-122.884;2024-02-21T02:48:03;2.83;;;1.30;;
80870;SDS011;70296;49.226;-122.884;2024-02-21T02:50:30;2.70;;;1.30;;
80870;SDS011;70296;49.226;-122.884;2024-02-21T02:52:56;2.45;;;1.30;;
80870;SDS011;70296;49.226;-122.884;2024-02-21T02:55:22;3.15;;;1.40;;
80870;SDS011;70296;49.226;-122.884;2024-02-21T02:57:48;2.20;;;1.30;;
80870;SDS011;70296;49.226;-122.884;2024-02-21T03:00:15;1.88;;;1.20;;
80870;SDS011;70296;49.226;-122.884;2024-02-21T03:02:42;1.92;;;1.00;;
80870;SDS011;70296;49.226;-122.884;2024-02-21T03:05:14;0.85;;;0.80;;
80870;SDS011;70296;49.226;-122.884;2024-02-21T03:07:41;3.00;;;1.10;;
80870;SDS011;70296;49.226;-122.884;2024-02-21T03:10:08;2.88;;;1.27;;
80870;SDS011;70296;49.226;-122.884;2024-02-21T03:12:38;1.67;;;1.20;;
80870;SDS011;70296;49.226;-122.884;2024-02-21T03:15:06;2.65;;;1.30;;
80870;SDS011;70296;49.226;-122.884;2024-02-21T03:17:32;1.90;;;1.10;;
80870;SDS011;70296;49.226;-122.884;2024-02-21T03:20:02;2.03;;;1.30;;
80870;SDS011;70296;49.226;-122.884;2024-02-21T03:22:34;5.57;;;1.55;;
80870;SDS011;70296;49.226;-122.884;2024-02-21T03:25:00;2.50;;;1.40;;
80870;SDS011;70296;49.226;-122.884;2024-02-21T03:27:26;3.22;;;1.25;;
80870;SDS011;70296;49.226;-122.884;2024-02-21T03:29:53;3.50;;;1.38;;
80870;SDS011;70296;49.226;-122.884;2024-02-21T03:32:19;2.78;;;1.48;;
80870;SDS011;70296;49.226;-122.884;2024-02-21T03:34:45;2.78;;;1.40;;
80870;SDS011;70296;49.226;-122.884;2024-02-21T03:37:11;1.77;;;1.20;;
80870;SDS011;70296;49.226;-122.884;2024-02-21T03:39:39;1.80;;;1.10;;
80870;SDS011;70296;49.226;-122.884;2024-02-21T03:42:05;2.97;;;1.50;;
80870;SDS011;70296;49.226;-122.884;2024-02-21T03:44:32;2.25;;;1.55;;
80870;SDS011;70296;49.226;-122.884;2024-02-21T03:47:01;2.67;;;1.40;;
80870;SDS011;70296;49.226;-122.884;2024-02-21T03:49:28;2.55;;;1.30;;
80870;SDS011;70296;49.226;-122.884;2024-02-21T03:51:55;2.65;;;1.50;;
80870;SDS011;70296;49.226;-122.884;2024-02-21T03:54:22;1.40;;;1.20;;
80870;SDS011;70296;49.226;-122.884;2024-02-21T03:56:48;2.10;;;1.27;;
80870;SDS011;70296;49.226;-122.884;2024-02-21T03:59:16;1.67;;;1.10;;
80870;SDS011;70296;49.226;-122.884;2024-02-21T04:01:42;1.95;;;1.23;;
80870;SDS011;70296;49.226;-122.884;2024-02-21T04:04:09;4.40;;;2.20;;
80870;SDS011;70296;49.226;-122.884;2024-02-21T04:06:36;3.20;;;1.30;;
80870;SDS011;70296;49.226;-122.884;2024-02-21T04:09:02;2.42;;;1.10;;
80870;SDS011;70296;49.226;-122.884;2024-02-21T04:11:28;2.90;;;1.50;;
80870;SDS011;70296;49.226;-122.884;2024-02-21T04:13:55;1.98;;;1.50;;
80870;SDS011;70296;49.226;-122.884;2024-02-21T04:16:21;2.00;;;1.20;;
80870;SDS011;70296;49.226;-122.884;2024-02-21T04:18:49;2.83;;;1.30;;
80870;SDS011;70296;49.226;-122.884;2024-02-21T04:21:15;2.20;;;1.27;;
80870;SDS011;70296;49.226;-122.884;2024-02-21T04:23:43;2.60;;;1.50;;
80870;SDS011;70296;49.226;-122.884;2024-02-21T04:26:10;1.95;;;1.20;;
80870;SDS011;70296;49.226;-122.884;2024-02-21T04:28:36;4.55;;;1.70;;
80870;SDS011;70296;49.226;-122.884;2024-02-21T04:31:02;2.03;;;1.13;;
80870;SDS011;70296;49.226;-122.884;2024-02-21T04:33:28;3.08;;;1.60;;
80870;SDS011;70296;49.226;-122.884;2024-02-21T04:35:55;2.42;;;1.58;;
80870;SDS011;70296;49.226;-122.884;2024-02-21T04:38:21;2.70;;;1.40;;
80870;SDS011;70296;49.226;-122.884;2024-02-21T04:40:49;2.40;;;1.10;;
80870;SDS011;70296;49.226;-122.884;2024-02-21T04:43:15;2.00;;;1.25;;
80870;SDS011;70296;49.226;-122.884;2024-02-21T04:45:42;1.65;;;1.10;;
80870;SDS011;70296;49.226;-122.884;2024-02-21T04:48:08;1.75;;;1.20;;
80870;SDS011;70296;49.226;-122.884;2024-02-21T04:50:34;2.60;;;1.50;;
80870;SDS011;70296;49.226;-122.884;2024-02-21T04:53:00;2.45;;;1.35;;
80870;SDS011;70296;49.226;-122.884;2024-02-21T04:55:26;3.20;;;1.50;;
80870;SDS011;70296;49.226;-122.884;2024-02-21T04:57:53;3.95;;;1.40;;
80870;SDS011;70296;49.226;-122.884;2024-02-21T05:00:21;2.92;;;1.30;;
80870;SDS011;70296;49.226;-122.884;2024-02-21T05:02:47;2.03;;;1.27;;
80870;SDS011;70296;49.226;-122.884;2024-02-21T05:05:13;2.00;;;1.33;;
80870;SDS011;70296;49.226;-122.884;2024-02-21T05:07:40;1.27;;;1.00;;
80870;SDS011;70296;49.226;-122.884;2024-02-21T05:10:07;2.38;;;1.10;;
80870;SDS011;70296;49.226;-122.884;2024-02-21T05:12:35;2.20;;;1.20;;
80870;SDS011;70296;49.226;-122.884;2024-02-21T05:15:01;1.55;;;0.95;;
80870;SDS011;70296;49.226;-122.884;2024-02-21T05:17:28;1.60;;;1.00;;
80870;SDS011;70296;49.226;-122.884;2024-02-21T05:19:54;2.33;;;1.30;;
80870;SDS011;70296;49.226;-122.884;2024-02-21T05:22:22;2.38;;;1.30;;
80870;SDS011;70296;49.226;-122.884;2024-02-21T05:24:50;3.47;;;1.50;;
80870;SDS011;70296;49.226;-122.884;2024-02-21T05:27:16;1.27;;;0.98;;
80870;SDS011;70296;49.226;-122.884;2024-02-21T05:29:42;2.03;;;1.40;;
80870;SDS011;70296;49.226;-122.884;2024-02-21T05:32:09;2.30;;;1.40;;
80870;SDS011;70296;49.226;-122.884;2024-02-21T05:34:35;1.98;;;1.40;;
80870;SDS011;70296;49.226;-122.884;2024-02-21T05:37:02;2.30;;;1.50;;
80870;SDS011;70296;49.226;-122.884;2024-02-21T05:39:30;2.50;;;1.50;;
80870;SDS011;70296;49.226;-122.884;2024-02-21T05:41:56;2.60;;;1.50;;
80870;SDS011;70296;49.226;-122.884;2024-02-21T05:44:22;3.63;;;1.23;;
80870;SDS011;70296;49.226;-122.884;2024-02-21T05:46:48;2.08;;;1.27;;
80870;SDS011;70296;49.226;-122.884;2024-02-21T05:49:15;1.38;;;1.13;;
80870;SDS011;70296;49.226;-122.884;2024-02-21T05:51:41;1.70;;;1.00;;
80870;SDS011;70296;49.226;-122.884;2024-02-21T05:54:07;1.40;;;1.00;;
80870;SDS011;70296;49.226;-122.884;2024-02-21T05:56:33;2.10;;;1.10;;
80870;SDS011;70296;49.226;-122.884;2024-02-21T05:59:00;1.42;;;1.10;;
80870;SDS011;70296;49.226;-122.884;2024-02-21T06:01:26;1.42;;;1.00;;
80870;SDS011;70296;49.226;-122.884;2024-02-21T06:03:53;1.17;;;0.93;;
80870;SDS011;70296;49.226;-122.884;2024-02-21T06:06:19;2.05;;;0.95;;
80870;SDS011;70296;49.226;-122.884;2024-02-21T06:08:47;1.25;;;0.90;;
80870;SDS011;70296;49.226;-122.884;2024-02-21T06:11:13;3.88;;;1.20;;
80870;SDS011;70296;49.226;-122.884;2024-02-21T06:13:40;2.03;;;1.25;;
80870;SDS011;70296;49.226;-122.884;2024-02-21T06:16:09;3.13;;;1.20;;
80870;SDS011;70296;49.226;-122.884;2024-02-21T06:18:36;2.08;;;0.93;;
80870;SDS011;70296;49.226;-122.884;2024-02-21T06:21:03;1.50;;;1.00;;
80870;SDS011;70296;49.226;-122.884;2024-02-21T06:23:29;2.67;;;1.10;;
80870;SDS011;70296;49.226;-122.884;2024-02-21T06:25:56;1.40;;;1.10;;
80870;SDS011;70296;49.226;-122.884;2024-02-21T06:28:25;1.23;;;0.77;;
80870;SDS011;70296;49.226;-122.884;2024-02-21T06:30:51;1.75;;;0.90;;
80870;SDS011;70296;49.226;-122.884;2024-02-21T06:33:18;1.88;;;1.08;;
80870;SDS011;70296;49.226;-122.884;2024-02-21T06:38:18;3.95;;;1.50;;
80870;SDS011;70296;49.226;-122.884;2024-02-21T06:40:45;2.47;;;1.48;;
80870;SDS011;70296;49.226;-122.884;2024-02-21T06:43:16;2.20;;;1.40;;
80870;SDS011;70296;49.226;-122.884;2024-02-21T06:45:44;2.30;;;1.35;;
80870;SDS011;70296;49.226;-122.884;2024-02-21T06:48:13;2.65;;;1.30;;
80870;SDS011;70296;49.226;-122.884;2024-02-21T06:50:39;4.45;;;1.17;;
80870;SDS011;70296;49.226;-122.884;2024-02-21T06:53:06;2.28;;;1.30;;
80870;SDS011;70296;49.226;-122.884;2024-02-21T06:55:32;2.72;;;1.30;;
80870;SDS011;70296;49.226;-122.884;2024-02-21T06:57:58;2.90;;;1.50;;
80870;SDS011;70296;49.226;-122.884;2024-02-21T07:00:24;2.08;;;1.40;;
80870;SDS011;70296;49.226;-122.884;2024-02-21T07:02:52;2.58;;;1.40;;
80870;SDS011;70296;49.226;-122.884;2024-02-21T07:05:18;3.10;;;1.70;;
80870;SDS011;70296;49.226;-122.884;2024-02-21T07:07:44;3.50;;;1.75;;
80870;SDS011;70296;49.226;-122.884;2024-02-21T07:10:11;3.00;;;1.50;;
80870;SDS011;70296;49.226;-122.884;2024-02-21T07:12:37;2.10;;;1.40;;
80870;SDS011;70296;49.226;-122.884;2024-02-21T07:15:08;2.35;;;1.52;;
80870;SDS011;70296;49.226;-122.884;2024-02-21T07:17:34;3.20;;;1.50;;
80870;SDS011;70296;49.226;-122.884;2024-02-21T07:20:01;2.40;;;1.60;;
80870;SDS011;70296;49.226;-122.884;2024-02-21T07:22:27;2.45;;;1.50;;
80870;SDS011;70296;49.226;-122.884;2024-02-21T07:24:53;3.15;;;1.50;;
80870;SDS011;70296;49.226;-122.884;2024-02-21T07:27:19;2.72;;;1.33;;
80870;SDS011;70296;49.226;-122.884;2024-02-21T07:29:46;2.53;;;1.40;;
80870;SDS011;70296;49.226;-122.884;2024-02-21T07:32:14;4.13;;;1.67;;
80870;SDS011;70296;49.226;-122.884;2024-02-21T07:34:40;2.47;;;1.50;;
80870;SDS011;70296;49.226;-122.884;2024-02-21T07:37:06;1.90;;;1.17;;
80870;SDS011;70296;49.226;-122.884;2024-02-21T07:39:35;2.03;;;1.35;;
80870;SDS011;70296;49.226;-122.884;2024-02-21T07:42:02;1.52;;;0.98;;
80870;SDS011;70296;49.226;-122.884;2024-02-21T07:44:29;1.85;;;1.20;;
80870;SDS011;70296;49.226;-122.884;2024-02-21T07:46:57;1.95;;;1.33;;
80870;SDS011;70296;49.226;-122.884;2024-02-21T07:49:23;2.50;;;1.23;;
80870;SDS011;70296;49.226;-122.884;2024-02-21T07:51:50;2.60;;;1.40;;
80870;SDS011;70296;49.226;-122.884;2024-02-21T07:54:18;2.03;;;1.30;;
80870;SDS011;70296;49.226;-122.884;2024-02-21T07:56:45;2.97;;;1.42;;
80870;SDS011;70296;49.226;-122.884;2024-02-21T07:59:11;2.72;;;1.50;;
80870;SDS011;70296;49.226;-122.884;2024-02-21T08:01:38;2.40;;;1.48;;
80870;SDS011;70296;49.226;-122.884;2024-02-21T08:04:04;2.30;;;1.40;;
80870;SDS011;70296;49.226;-122.884;2024-02-21T08:06:31;1.83;;;1.10;;
80870;SDS011;70296;49.226;-122.884;2024-02-21T08:08:57;2.78;;;1.30;;
80870;SDS011;70296;49.226;-122.884;2024-02-21T08:11:23;2.20;;;1.20;;
80870;SDS011;70296;49.226;-122.884;2024-02-21T08:13:49;2.20;;;1.20;;
80870;SDS011;70296;49.226;-122.884;2024-02-21T08:16:15;1.30;;;1.00;;
80870;SDS011;70296;49.226;-122.884;2024-02-21T08:18:43;1.48;;;1.00;;
80870;SDS011;70296;49.226;-122.884;2024-02-21T08:21:10;1.85;;;1.10;;
80870;SDS011;70296;49.226;-122.884;2024-02-21T08:23:36;3.15;;;1.20;;
80870;SDS011;70296;49.226;-122.884;2024-02-21T08:26:03;2.58;;;1.10;;
80870;SDS011;70296;49.226;-122.884;2024-02-21T08:28:29;1.70;;;1.20;;
80870;SDS011;70296;49.226;-122.884;2024-02-21T08:30:55;2.08;;;1.23;;
80870;SDS011;70296;49.226;-122.884;2024-02-21T08:33:22;2.80;;;1.02;;
80870;SDS011;70296;49.226;-122.884;2024-02-21T08:35:53;2.40;;;1.10;;
80870;SDS011;70296;49.226;-122.884;2024-02-21T08:38:19;2.10;;;1.23;;
80870;SDS011;70296;49.226;-122.884;2024-02-21T08:40:47;2.20;;;1.40;;
80870;SDS011;70296;49.226;-122.884;2024-02-21T08:43:13;2.42;;;1.40;;
80870;SDS011;70296;49.226;-122.884;2024-02-21T08:45:39;2.90;;;1.80;;
80870;SDS011;70296;49.226;-122.884;2024-02-21T08:48:06;2.42;;;1.50;;
80870;SDS011;70296;49.226;-122.884;2024-02-21T08:50:33;2.40;;;1.52;;
80870;SDS011;70296;49.226;-122.884;2024-02-21T08:52:59;3.00;;;1.60;;
80870;SDS011;70296;49.226;-122.884;2024-02-21T08:55:26;2.85;;;1.70;;
80870;SDS011;70296;49.226;-122.884;2024-02-21T08:57:52;3.75;;;2.05;;
80870;SDS011;70296;49.226;-122.884;2024-02-21T09:00:19;2.88;;;1.77;;
80870;SDS011;70296;49.226;-122.884;2024-02-21T09:02:49;3.78;;;1.55;;
80870;SDS011;70296;49.226;-122.884;2024-02-21T09:05:15;2.90;;;1.70;;
80870;SDS011;70296;49.226;-122.884;2024-02-21T09:07:41;3.50;;;1.98;;
80870;SDS011;70296;49.226;-122.884;2024-02-21T09:10:08;3.38;;;1.85;;
80870;SDS011;70296;49.226;-122.884;2024-02-21T09:12:34;4.18;;;1.92;;
80870;SDS011;70296;49.226;-122.884;2024-02-21T09:15:00;3.78;;;1.90;;
80870;SDS011;70296;49.226;-122.884;2024-02-21T09:17:28;4.13;;;2.03;;
80870;SDS011;70296;49.226;-122.884;2024-02-21T09:19:54;3.53;;;1.98;;
80870;SDS011;70296;49.226;-122.884;2024-02-21T09:22:24;5.13;;;2.22;;
80870;SDS011;70296;49.226;-122.884;2024-02-21T09:24:50;4.40;;;2.22;;
80870;SDS011;70296;49.226;-122.884;2024-02-21T09:27:16;4.15;;;1.98;;
80870;SDS011;70296;49.226;-122.884;2024-02-21T09:29:42;5.93;;;2.40;;
80870;SDS011;70296;49.226;-122.884;2024-02-21T09:32:09;3.63;;;1.95;;
80870;SDS011;70296;49.226;-122.884;2024-02-21T09:34:35;3.67;;;2.10;;
80870;SDS011;70296;49.226;-122.884;2024-02-21T09:37:01;3.85;;;2.00;;
80870;SDS011;70296;49.226;-122.884;2024-02-21T09:39:27;3.85;;;2.10;;
80870;SDS011;70296;49.226;-122.884;2024-02-21T09:41:57;3.53;;;1.90;;
80870;SDS011;70296;49.226;-122.884;2024-02-21T09:44:26;3.30;;;2.00;;
80870;SDS011;70296;49.226;-122.884;2024-02-21T09:47:00;4.20;;;2.25;;
80870;SDS011;70296;49.226;-122.884;2024-02-21T09:52:15;4.40;;;2.22;;
80870;SDS011;70296;49.226;-122.884;2024-02-21T09:54:42;3.35;;;1.88;;
80870;SDS011;70296;49.226;-122.884;2024-02-21T09:57:11;4.90;;;2.08;;
80870;SDS011;70296;49.226;-122.884;2024-02-21T09:59:39;3.60;;;2.35;;
80870;SDS011;70296;49.226;-122.884;2024-02-21T10:02:09;2.83;;;1.80;;
80870;SDS011;70296;49.226;-122.884;2024-02-21T10:04:39;4.18;;;2.20;;
80870;SDS011;70296;49.226;-122.884;2024-02-21T10:07:06;2.95;;;1.90;;
80870;SDS011;70296;49.226;-122.884;2024-02-21T10:09:34;3.15;;;1.85;;
80870;SDS011;70296;49.226;-122.884;2024-02-21T10:12:09;3.97;;;2.08;;
80870;SDS011;70296;49.226;-122.884;2024-02-21T10:14:37;2.70;;;1.70;;
80870;SDS011;70296;49.226;-122.884;2024-02-21T10:17:03;3.58;;;2.17;;
80870;SDS011;70296;49.226;-122.884;2024-02-21T10:19:34;3.45;;;1.90;;
80870;SDS011;70296;49.226;-122.884;2024-02-21T10:24:33;2.65;;;1.58;;
80870;SDS011;70296;49.226;-122.884;2024-02-21T10:27:03;3.47;;;1.85;;
80870;SDS011;70296;49.226;-122.884;2024-02-21T10:29:40;2.75;;;1.45;;
80870;SDS011;70296;49.226;-122.884;2024-02-21T10:34:34;2.42;;;1.42;;
80870;SDS011;70296;49.226;-122.884;2024-02-21T10:39:42;4.85;;;1.60;;
80870;SDS011;70296;49.226;-122.884;2024-02-21T10:42:10;2.47;;;1.40;;
80870;SDS011;70296;49.226;-122.884;2024-02-21T10:44:38;3.08;;;1.67;;
80870;SDS011;70296;49.226;-122.884;2024-02-21T10:47:09;2.20;;;1.30;;
80870;SDS011;70296;49.226;-122.884;2024-02-21T10:49:39;2.90;;;1.55;;
80870;SDS011;70296;49.226;-122.884;2024-02-21T10:52:55;3.80;;;1.98;;
80870;SDS011;70296;49.226;-122.884;2024-02-21T10:55:09;2.55;;;1.50;;
80870;SDS011;70296;49.226;-122.884;2024-02-21T10:57:38;2.95;;;1.65;;
80870;SDS011;70296;49.226;-122.884;2024-02-21T11:00:05;4.72;;;2.40;;
80870;SDS011;70296;49.226;-122.884;2024-02-21T11:02:37;3.78;;;2.10;;
80870;SDS011;70296;49.226;-122.884;2024-02-21T11:05:05;3.42;;;1.98;;
80870;SDS011;70296;49.226;-122.884;2024-02-21T11:07:35;3.15;;;1.67;;
80870;SDS011;70296;49.226;-122.884;2024-02-21T11:10:03;3.53;;;1.90;;
80870;SDS011;70296;49.226;-122.884;2024-02-21T11:12:32;2.72;;;1.65;;
80870;SDS011;70296;49.226;-122.884;2024-02-21T11:15:05;4.38;;;2.10;;
80870;SDS011;70296;49.226;-122.884;2024-02-21T11:17:32;3.58;;;1.88;;
80870;SDS011;70296;49.226;-122.884;2024-02-21T11:19:58;3.78;;;1.55;;
80870;SDS011;70296;49.226;-122.884;2024-02-21T11:22:26;2.15;;;1.30;;
80870;SDS011;70296;49.226;-122.884;2024-02-21T11:25:05;1.42;;;1.00;;
80870;SDS011;70296;49.226;-122.884;2024-02-21T11:27:38;2.67;;;1.50;;
80870;SDS011;70296;49.226;-122.884;2024-02-21T11:30:11;2.08;;;1.20;;
80870;SDS011;70296;49.226;-122.884;2024-02-21T11:32:39;2.58;;;1.35;;
80870;SDS011;70296;49.226;-122.884;2024-02-21T11:35:06;2.97;;;1.50;;
80870;SDS011;70296;49.226;-122.884;2024-02-21T11:37:34;3.65;;;1.45;;
80870;SDS011;70296;49.226;-122.884;2024-02-21T11:40:03;2.08;;;1.13;;
80870;SDS011;70296;49.226;-122.884;2024-02-21T11:42:32;2.72;;;1.30;;
80870;SDS011;70296;49.226;-122.884;2024-02-21T11:44:59;2.08;;;1.13;;
80870;SDS011;70296;49.226;-122.884;2024-02-21T11:47:27;2.10;;;1.20;;
80870;SDS011;70296;49.226;-122.884;2024-02-21T11:49:54;2.05;;;1.30;;
80870;SDS011;70296;49.226;-122.884;2024-02-21T11:52:24;2.50;;;1.48;;
80870;SDS011;70296;49.226;-122.884;2024-02-21T11:54:54;2.47;;;1.20;;
80870;SDS011;70296;49.226;-122.884;2024-02-21T11:57:23;1.80;;;1.20;;
80870;SDS011;70296;49.226;-122.884;2024-02-21T11:59:50;1.70;;;1.20;;
80870;SDS011;70296;49.226;-122.884;2024-02-21T12:02:18;1.75;;;0.80;;
80870;SDS011;70296;49.226;-122.884;2024-02-21T12:04:46;1.67;;;1.00;;
80870;SDS011;70296;49.226;-122.884;2024-02-21T12:07:14;1.00;;;0.80;;
80870;SDS011;70296;49.226;-122.884;2024-02-21T12:09:42;0.63;;;0.63;;
80870;SDS011;70296;49.226;-122.884;2024-02-21T12:12:08;0.75;;;0.68;;
80870;SDS011;70296;49.226;-122.884;2024-02-21T12:14:35;0.80;;;0.80;;
80870;SDS011;70296;49.226;-122.884;2024-02-21T12:17:02;1.25;;;1.10;;
80870;SDS011;70296;49.226;-122.884;2024-02-21T12:19:32;1.77;;;0.93;;
80870;SDS011;70296;49.226;-122.884;2024-02-21T12:22:00;1.35;;;0.60;;
80870;SDS011;70296;49.226;-122.884;2024-02-21T12:24:31;1.92;;;0.63;;
80870;SDS011;70296;49.226;-122.884;2024-02-21T12:26:59;1.35;;;0.60;;
80870;SDS011;70296;49.226;-122.884;2024-02-21T12:29:28;0.57;;;0.57;;
80870;SDS011;70296;49.226;-122.884;2024-02-21T12:31:55;0.90;;;0.45;;
80870;SDS011;70296;49.226;-122.884;2024-02-21T12:34:23;1.05;;;0.60;;
80870;SDS011;70296;49.226;-122.884;2024-02-21T12:36:50;0.75;;;0.35;;
80870;SDS011;70296;49.226;-122.884;2024-02-21T12:39:17;0.28;;;0.28;;
80870;SDS011;70296;49.226;-122.884;2024-02-21T12:41:43;0.68;;;0.47;;
80870;SDS011;70296;49.226;-122.884;2024-02-21T12:44:12;1.15;;;0.50;;
80870;SDS011;70296;49.226;-122.884;2024-02-21T12:46:42;0.40;;;0.40;;
80870;SDS011;70296;49.226;-122.884;2024-02-21T12:49:10;0.65;;;0.45;;
80870;SDS011;70296;49.226;-122.884;2024-02-21T12:51:36;0.43;;;0.43;;
80870;SDS011;70296;49.226;-122.884;2024-02-21T12:54:03;1.15;;;0.50;;
80870;SDS011;70296;49.226;-122.884;2024-02-21T12:56:30;0.47;;;0.40;;
80870;SDS011;70296;49.226;-122.884;2024-02-21T12:58:57;2.05;;;1.02;;
80870;SDS011;70296;49.226;-122.884;2024-02-21T13:01:24;0.68;;;0.60;;
80870;SDS011;70296;49.226;-122.884;2024-02-21T13:03:53;1.30;;;0.50;;
80870;SDS011;70296;49.226;-122.884;2024-02-21T13:06:21;0.55;;;0.50;;
80870;SDS011;70296;49.226;-122.884;2024-02-21T13:08:47;0.73;;;0.30;;
80870;SDS011;70296;49.226;-122.884;2024-02-21T13:11:13;0.50;;;0.50;;
80870;SDS011;70296;49.226;-122.884;2024-02-21T13:13:42;0.50;;;0.50;;
80870;SDS011;70296;49.226;-122.884;2024-02-21T13:16:09;0.32;;;0.30;;
80870;SDS011;70296;49.226;-122.884;2024-02-21T13:18:37;1.02;;;0.80;;
80870;SDS011;70296;49.226;-122.884;2024-02-21T13:21:04;0.45;;;0.40;;
80870;SDS011;70296;49.226;-122.884;2024-02-21T13:23:31;1.55;;;0.50;;
80870;SDS011;70296;49.226;-122.884;2024-02-21T13:25:57;0.95;;;0.63;;
80870;SDS011;70296;49.226;-122.884;2024-02-21T13:28:24;0.45;;;0.32;;
80870;SDS011;70296;49.226;-122.884;2024-02-21T13:30:53;1.63;;;0.80;;
80870;SDS011;70296;49.226;-122.884;2024-02-21T13:33:19;1.10;;;0.40;;
80870;SDS011;70296;49.226;-122.884;2024-02-21T13:35:50;1.70;;;0.52;;
80870;SDS011;70296;49.226;-122.884;2024-02-21T13:38:17;1.38;;;0.73;;
80870;SDS011;70296;49.226;-122.884;2024-02-21T13:40:44;1.70;;;1.20;;
80870;SDS011;70296;49.226;-122.884;2024-02-21T13:43:12;2.08;;;1.42;;
80870;SDS011;70296;49.226;-122.884;2024-02-21T13:45:38;0.93;;;0.85;;
80870;SDS011;70296;49.226;-122.884;2024-02-21T13:48:06;1.52;;;0.90;;
80870;SDS011;70296;49.226;-122.884;2024-02-21T13:50:36;2.05;;;1.20;;
80870;SDS011;70296;49.226;-122.884;2024-02-21T13:53:08;2.05;;;0.90;;
80870;SDS011;70296;49.226;-122.884;2024-02-21T13:55:37;0.85;;;0.70;;
80870;SDS011;70296;49.226;-122.884;2024-02-21T13:58:06;1.75;;;0.90;;
80870;SDS011;70296;49.226;-122.884;2024-02-21T14:00:34;1.80;;;1.35;;
80870;SDS011;70296;49.226;-122.884;2024-02-21T14:03:03;1.08;;;0.90;;
80870;SDS011;70296;49.226;-122.884;2024-02-21T14:05:29;1.15;;;0.75;;
80870;SDS011;70296;49.226;-122.884;2024-02-21T14:07:57;1.27;;;0.68;;
80870;SDS011;70296;49.226;-122.884;2024-02-21T14:10:26;1.98;;;0.70;;
80870;SDS011;70296;49.226;-122.884;2024-02-21T14:12:53;6.80;;;1.58;;
80870;SDS011;70296;49.226;-122.884;2024-02-21T14:15:20;2.33;;;0.73;;
80870;SDS011;70296;49.226;-122.884;2024-02-21T14:17:46;0.35;;;0.25;;
80870;SDS011;70296;49.226;-122.884;2024-02-21T14:20:12;0.95;;;0.45;;
80870;SDS011;70296;49.226;-122.884;2024-02-21T14:22:41;1.75;;;0.70;;
80870;SDS011;70296;49.226;-122.884;2024-02-21T14:25:08;0.68;;;0.50;;